Time;durP1;ratioP1;P1;durP2;ratioP2;P2;SDS_P1;SDS_P2;PMS_P1;PMS_P2;Temp;Humidity;BMP_temperature;BMP_pressure;BME280_temperature;BME280_humidity;BME280_pressure;Samples;Min_cycle;Max_cycle;Signal;HPM_P1;HPM_P2
2021/07/22 00:00:22;;;;;;;10.97;8.17;;;16.60;99.90;;;;;;4987567;28;20675;-93
2021/07/22 00:02:49;;;;;;;8.87;7.93;;;16.60;99.90;;;;;;4984742;28;21074;-93
2021/07/22 00:05:18;;;;;;;9.60;8.60;;;16.60;99.90;;;;;;4988108;28;20619;-93
2021/07/22 00:07:47;;;;;;;7.60;6.90;;;16.60;99.90;;;;;;4987490;28;20613;-93
2021/07/22 00:10:15;;;;;;;8.93;8.23;;;16.50;99.90;;;;;;4988788;28;21300;-93
2021/07/22 00:12:42;;;;;;;8.20;7.40;;;16.50;99.90;;;;;;4990601;28;20739;-93
2021/07/22 00:15:10;;;;;;;8.23;7.30;;;16.40;99.90;;;;;;4986970;28;20628;-93
2021/07/22 00:17:38;;;;;;;8.20;7.40;;;16.40;99.90;;;;;;4992090;28;20662;-93
2021/07/22 00:20:06;;;;;;;8.93;8.07;;;16.40;99.90;;;;;;4988160;28;20652;-93
2021/07/22 00:22:36;;;;;;;9.13;8.23;;;16.40;99.90;;;;;;4989754;28;20695;-93
2021/07/22 00:25:05;;;;;;;10.60;8.20;;;16.40;99.90;;;;;;4986279;28;21168;-91
2021/07/22 00:27:32;;;;;;;8.23;6.67;;;16.40;99.90;;;;;;4986486;28;20663;-94
2021/07/22 00:30:00;;;;;;;9.47;7.00;;;16.30;99.90;;;;;;4983974;28;21231;-94
2021/07/22 00:32:27;;;;;;;9.93;7.30;;;16.30;99.90;;;;;;4987084;28;21174;-93
2021/07/22 00:34:54;;;;;;;11.20;8.00;;;16.20;99.90;;;;;;4987161;28;20640;-91
2021/07/22 00:37:22;;;;;;;10.67;8.77;;;16.30;99.90;;;;;;4989937;28;20671;-92
2021/07/22 00:39:52;;;;;;;9.50;8.60;;;16.20;99.90;;;;;;5003147;28;20668;-94
2021/07/22 00:42:21;;;;;;;9.10;7.80;;;16.10;99.90;;;;;;5002386;28;20637;-93
2021/07/22 00:44:48;;;;;;;9.33;7.27;;;16.10;99.90;;;;;;4993825;28;20839;-91
2021/07/22 00:47:14;;;;;;;10.40;9.07;;;16.10;99.90;;;;;;4985091;28;20642;-93
2021/07/22 00:49:41;;;;;;;9.10;8.20;;;16.10;99.90;;;;;;4986271;28;20652;-92
2021/07/22 00:52:08;;;;;;;12.10;10.23;;;16.00;99.90;;;;;;4987286;28;21116;-93
2021/07/22 00:54:35;;;;;;;11.17;8.90;;;15.90;99.90;;;;;;4985510;28;20621;-94
2021/07/22 00:57:01;;;;;;;10.07;8.60;;;15.80;99.90;;;;;;4986971;28;21011;-93
2021/07/22 00:59:30;;;;;;;9.53;8.73;;;15.80;99.90;;;;;;4991453;28;20642;-91
2021/07/22 01:01:57;;;;;;;11.57;8.83;;;15.80;99.90;;;;;;4986402;28;20628;-92
2021/07/22 01:04:24;;;;;;;12.40;9.27;;;15.80;99.90;;;;;;4993644;28;20652;-93
2021/07/22 01:06:51;;;;;;;9.73;7.80;;;15.80;99.90;;;;;;4990150;28;20779;-93
2021/07/22 01:09:18;;;;;;;10.10;9.10;;;15.80;99.90;;;;;;4986225;28;20905;-93
2021/07/22 01:11:45;;;;;;;9.77;8.37;;;15.80;99.90;;;;;;4988197;28;21065;-93
2021/07/22 01:14:11;;;;;;;9.87;9.07;;;15.70;99.90;;;;;;4985534;28;20649;-93
2021/07/22 01:16:40;;;;;;;9.50;8.40;;;15.60;99.90;;;;;;4987550;28;20627;-93
2021/07/22 01:19:07;;;;;;;9.40;8.33;;;15.70;99.90;;;;;;4988096;28;20645;-93
2021/07/22 01:21:35;;;;;;;9.90;9.07;;;15.60;99.90;;;;;;4985842;28;20692;-92
2021/07/22 01:24:01;;;;;;;9.40;8.37;;;15.60;99.90;;;;;;4992769;28;20649;-93
2021/07/22 01:26:28;;;;;;;9.40;8.60;;;15.60;99.90;;;;;;4990865;28;20638;-93
2021/07/22 01:28:55;;;;;;;10.00;8.30;;;15.50;99.90;;;;;;4984796;28;20639;-93
2021/07/22 01:31:26;;;;;;;9.47;8.57;;;15.50;99.90;;;;;;4985894;28;21225;-93
2021/07/22 01:33:52;;;;;;;10.67;8.67;;;15.60;99.90;;;;;;4987528;28;20637;-93
2021/07/22 01:36:23;;;;;;;8.73;8.00;;;15.50;99.90;;;;;;4992897;28;20991;-93
2021/07/22 01:38:52;;;;;;;8.87;8.00;;;15.50;99.90;;;;;;4982342;28;20692;-91
2021/07/22 01:41:19;;;;;;;9.13;8.37;;;15.30;99.90;;;;;;4983043;28;20636;-92
2021/07/22 01:43:46;;;;;;;8.37;7.70;;;15.30;99.90;;;;;;4985246;28;21185;-94
2021/07/22 01:46:17;;;;;;;16.40;8.40;;;15.30;99.90;;;;;;4986602;28;20641;-93
2021/07/22 01:48:44;;;;;;;8.83;7.90;;;15.40;99.90;;;;;;4986267;28;20724;-94
2021/07/22 01:51:11;;;;;;;8.13;7.43;;;15.20;99.90;;;;;;4985774;28;20650;-92
2021/07/22 01:53:38;;;;;;;8.97;8.13;;;15.20;99.90;;;;;;4986129;28;20636;-92
2021/07/22 01:56:07;;;;;;;9.20;8.30;;;15.20;99.90;;;;;;4983877;28;20641;-92
2021/07/22 01:58:33;;;;;;;10.43;8.43;;;15.20;99.90;;;;;;4986253;28;21249;-92
2021/07/22 02:01:02;;;;;;;9.57;8.67;;;15.10;99.90;;;;;;4985044;28;20672;-92
2021/07/22 02:03:28;;;;;;;9.60;8.70;;;15.20;99.90;;;;;;4981722;28;20732;-91
2021/07/22 02:05:55;;;;;;;9.07;8.27;;;15.10;99.90;;;;;;4985646;28;21209;-92
2021/07/22 02:08:22;;;;;;;9.60;8.67;;;15.10;99.90;;;;;;4983785;28;20621;-92
2021/07/22 02:10:49;;;;;;;13.77;8.27;;;15.20;99.90;;;;;;4989131;28;20673;-92
2021/07/22 02:13:17;;;;;;;9.63;8.70;;;15.20;99.90;;;;;;4988111;28;20656;-92
2021/07/22 02:15:44;;;;;;;9.97;9.07;;;15.10;99.90;;;;;;4984786;28;20629;-92
2021/07/22 02:18:11;;;;;;;9.43;8.50;;;15.10;99.90;;;;;;4986252;28;21338;-91
2021/07/22 02:20:38;;;;;;;9.57;8.80;;;14.90;99.90;;;;;;4987607;28;20931;-91
2021/07/22 02:23:05;;;;;;;9.67;8.83;;;14.80;99.90;;;;;;4984266;28;20656;-91
2021/07/22 02:25:31;;;;;;;9.83;8.93;;;14.90;99.90;;;;;;4983311;28;20621;-91
2021/07/22 02:27:58;;;;;;;8.93;8.13;;;14.90;99.90;;;;;;4982027;28;20644;-92
2021/07/22 02:30:26;;;;;;;8.70;7.90;;;14.90;99.90;;;;;;4984349;28;21289;-91
2021/07/22 02:32:53;;;;;;;8.83;7.93;;;14.80;99.90;;;;;;4991068;28;20633;-95
2021/07/22 02:35:21;;;;;;;9.00;8.30;;;14.80;99.90;;;;;;4989441;28;20633;-95
2021/07/22 02:37:52;;;;;;;8.17;7.37;;;14.80;99.90;;;;;;4987059;28;20692;-95
2021/07/22 02:40:20;;;;;;;9.10;8.30;;;14.80;99.90;;;;;;4996523;28;20671;-96
2021/07/22 02:42:50;;;;;;;9.47;8.50;;;14.80;99.90;;;;;;4994049;28;21306;-96
2021/07/22 02:45:18;;;;;;;7.90;7.30;;;14.80;99.90;;;;;;4995400;28;20660;-96
2021/07/22 02:47:46;;;;;;;9.27;8.47;;;14.90;99.90;;;;;;4991485;28;20622;-96
2021/07/22 02:50:13;;;;;;;14.23;8.50;;;14.80;99.90;;;;;;4990044;28;20784;-96
2021/07/22 02:52:41;;;;;;;9.83;8.60;;;14.80;99.90;;;;;;4988986;28;20647;-96
2021/07/22 02:55:10;;;;;;;9.43;8.63;;;14.90;99.90;;;;;;4990533;28;20652;-95
2021/07/22 02:57:38;;;;;;;8.93;8.20;;;14.90;99.90;;;;;;4998780;28;20743;-96
2021/07/22 03:00:06;;;;;;;9.23;8.43;;;14.70;99.90;;;;;;4993059;28;20687;-96
2021/07/22 03:02:33;;;;;;;10.43;8.87;;;14.70;99.90;;;;;;4990546;28;20629;-96
2021/07/22 03:05:04;;;;;;;9.30;8.50;;;14.70;99.90;;;;;;4986229;28;21121;-96
2021/07/22 03:07:31;;;;;;;10.60;9.70;;;14.80;99.90;;;;;;4988945;28;20633;-96
2021/07/22 03:09:58;;;;;;;10.50;9.60;;;14.70;99.90;;;;;;4987741;28;20664;-96
2021/07/22 03:12:25;;;;;;;10.23;9.33;;;14.70;99.90;;;;;;4994807;28;20643;-96
2021/07/22 03:14:52;;;;;;;9.57;8.70;;;14.70;99.90;;;;;;4994120;28;20636;-96
2021/07/22 03:17:20;;;;;;;9.00;8.30;;;14.70;99.90;;;;;;4996671;28;20638;-96
2021/07/22 03:19:47;;;;;;;10.73;9.70;;;14.70;99.90;;;;;;4989617;28;20759;-96
2021/07/22 03:22:17;;;;;;;11.43;10.23;;;14.60;99.90;;;;;;4995998;28;20723;-96
2021/07/22 03:24:51;;;;;;;10.93;9.93;;;14.60;99.90;;;;;;5005713;28;20623;-96
2021/07/22 03:27:22;;;;;;;13.17;10.10;;;14.60;99.90;;;;;;5000041;28;20637;-96
2021/07/22 03:29:54;;;;;;;11.23;10.10;;;14.60;99.90;;;;;;4989632;28;20677;-96
2021/07/22 03:35:06;;;;;;;10.60;9.70;;;14.50;99.90;;;;;;4994228;28;20644;-96
2021/07/22 03:37:34;;;;;;;9.53;8.53;;;14.50;99.90;;;;;;4987813;28;20651;-96
2021/07/22 03:40:01;;;;;;;10.97;9.40;;;14.50;99.90;;;;;;4986577;28;20674;-95
2021/07/22 03:42:30;;;;;;;10.30;9.40;;;14.50;99.90;;;;;;4990303;28;20667;-96
2021/07/22 03:44:56;;;;;;;10.80;9.80;;;14.40;99.90;;;;;;4982903;28;20632;-96
2021/07/22 03:47:23;;;;;;;10.77;9.80;;;14.40;99.90;;;;;;4997197;28;20636;-96
2021/07/22 03:49:50;;;;;;;11.93;10.20;;;14.40;99.90;;;;;;4988953;28;20708;-96
2021/07/22 03:52:17;;;;;;;11.93;9.43;;;14.40;99.90;;;;;;4989639;28;20724;-96
2021/07/22 03:54:46;;;;;;;11.20;10.20;;;14.40;99.90;;;;;;4987241;28;20640;-96
2021/07/22 03:57:17;;;;;;;11.07;10.07;;;14.30;99.90;;;;;;5004516;28;20704;-96
2021/07/22 03:59:44;;;;;;;11.63;10.40;;;14.40;99.90;;;;;;5015583;28;20664;-96
2021/07/22 04:02:12;;;;;;;11.30;10.10;;;14.40;99.90;;;;;;5009860;28;20648;-96
2021/07/22 04:04:40;;;;;;;12.07;9.73;;;14.20;99.90;;;;;;5002464;28;20637;-96
2021/07/22 04:07:07;;;;;;;11.53;10.53;;;14.20;99.90;;;;;;5006428;28;20640;-96
2021/07/22 04:09:35;;;;;;;10.67;9.57;;;14.20;99.90;;;;;;5004673;28;20644;-96
2021/07/22 04:12:04;;;;;;;12.53;10.50;;;14.20;99.90;;;;;;5005811;28;20713;-96
2021/07/22 04:14:31;;;;;;;10.73;9.63;;;14.20;99.90;;;;;;5017024;28;21365;-96
2021/07/22 04:17:01;;;;;;;12.77;9.70;;;14.30;99.90;;;;;;4996184;28;20674;-96
2021/07/22 04:19:30;;;;;;;11.57;10.47;;;14.20;99.90;;;;;;5003004;28;20740;-96
2021/07/22 04:21:59;;;;;;;11.23;10.23;;;14.30;99.90;;;;;;5011045;28;20783;-96
2021/07/22 04:24:26;;;;;;;11.30;10.20;;;14.30;99.90;;;;;;5000025;28;20694;-96
2021/07/22 04:26:54;;;;;;;14.80;10.03;;;14.30;99.90;;;;;;4998077;28;20647;-96
2021/07/22 04:29:25;;;;;;;11.80;10.57;;;14.30;99.90;;;;;;5002886;28;20631;-96
2021/07/22 04:31:53;;;;;;;10.00;9.10;;;14.30;99.90;;;;;;5004927;28;20636;-96
2021/07/22 04:34:21;;;;;;;10.67;9.73;;;14.30;99.90;;;;;;5011001;28;20695;-96
2021/07/22 04:36:48;;;;;;;9.93;9.03;;;14.30;99.90;;;;;;5010727;28;20663;-96
2021/07/22 04:39:28;;;;;;;10.03;9.23;;;14.30;99.90;;;;;;5003308;28;20759;-96
2021/07/22 04:46:28;;;;;;;11.00;9.83;;;14.50;99.90;;;;;;5037679;28;20615;-96
2021/07/22 04:51:47;;;;;;;10.33;9.37;;;14.60;99.90;;;;;;5016439;28;20692;-96
2021/07/22 04:54:31;;;;;;;12.33;11.10;;;14.60;99.90;;;;;;5018584;28;20727;-96
2021/07/22 04:56:59;;;;;;;11.10;10.03;;;14.70;99.90;;;;;;5000943;28;21202;-96
2021/07/22 05:02:19;;;;;;;11.57;10.43;;;14.90;99.90;;;;;;5015961;28;20635;-96
2021/07/22 05:04:47;;;;;;;10.77;9.87;;;15.00;99.90;;;;;;5009283;28;20658;-96
2021/07/22 05:07:24;;;;;;;10.43;9.43;;;15.10;99.90;;;;;;5020684;28;20616;-96
2021/07/22 05:09:52;;;;;;;11.47;10.40;;;15.20;99.90;;;;;;5007410;28;20656;-96
2021/07/22 05:12:28;;;;;;;10.83;9.53;;;15.20;99.90;;;;;;5023625;28;20609;-96
2021/07/22 05:14:59;;;;;;;10.13;9.23;;;15.40;99.90;;;;;;5017413;28;20639;-96
2021/07/22 05:17:37;;;;;;;12.23;11.13;;;15.40;99.90;;;;;;5020351;28;20608;-96
2021/07/22 05:20:19;;;;;;;12.83;11.53;;;15.40;99.90;;;;;;5018066;28;20739;-95
2021/07/22 05:22:46;;;;;;;12.37;11.27;;;15.60;99.90;;;;;;5023026;28;20670;-95
2021/07/22 05:25:16;;;;;;;12.00;11.00;;;15.70;99.90;;;;;;5012711;28;20878;-95
2021/07/22 05:27:46;;;;;;;10.57;9.67;;;15.80;99.90;;;;;;5008779;28;20618;-96
2021/07/22 05:30:14;;;;;;;12.70;11.20;;;15.90;99.90;;;;;;5012379;28;20699;-96
2021/07/22 05:32:46;;;;;;;10.30;9.47;;;16.00;99.90;;;;;;5009354;28;20652;-95
2021/07/22 05:43:11;;;;;;;11.90;10.90;;;16.20;99.90;;;;;;5011074;28;20647;-96
2021/07/22 05:45:38;;;;;;;12.87;11.67;;;16.30;99.90;;;;;;5004893;28;20632;-92
2021/07/22 05:48:06;;;;;;;12.47;11.30;;;16.40;99.90;;;;;;4984354;28;20723;-87
2021/07/22 05:50:33;;;;;;;12.30;11.13;;;16.40;99.90;;;;;;4985478;28;20639;-87
2021/07/22 05:53:00;;;;;;;13.00;11.70;;;16.40;99.90;;;;;;4985691;28;20640;-86
2021/07/22 05:55:27;;;;;;;14.80;10.73;;;16.50;99.90;;;;;;4988654;28;20644;-87
2021/07/22 05:57:54;;;;;;;11.20;10.10;;;16.50;99.90;;;;;;4988482;28;20633;-88
2021/07/22 06:00:21;;;;;;;12.33;11.23;;;16.50;99.90;;;;;;4985753;28;20668;-87
2021/07/22 06:02:48;;;;;;;13.37;11.97;;;16.60;99.90;;;;;;4990116;28;21286;-88
2021/07/22 06:05:19;;;;;;;13.63;11.70;;;16.60;99.90;;;;;;4998190;28;20632;-88
2021/07/22 06:07:46;;;;;;;12.47;11.20;;;16.60;99.90;;;;;;4999671;28;20660;-87
2021/07/22 06:10:14;;;;;;;12.00;10.90;;;16.70;99.90;;;;;;4999438;28;20602;-87
2021/07/22 06:12:42;;;;;;;11.90;10.70;;;16.80;99.90;;;;;;4990795;28;20712;-87
2021/07/22 06:15:10;;;;;;;12.40;11.27;;;16.90;99.90;;;;;;4988564;28;20621;-87
2021/07/22 06:17:38;;;;;;;13.47;11.63;;;17.00;99.90;;;;;;4990650;28;20639;-88
2021/07/22 06:20:06;;;;;;;12.40;11.20;;;17.10;99.90;;;;;;4999120;28;20655;-87
2021/07/22 06:22:36;;;;;;;12.00;11.00;;;17.10;99.90;;;;;;4996544;28;20664;-87
2021/07/22 06:25:03;;;;;;;13.03;11.83;;;17.20;99.90;;;;;;4994353;28;20636;-88
2021/07/22 06:27:29;;;;;;;11.27;10.17;;;17.40;99.90;;;;;;4991837;28;20613;-88
2021/07/22 06:30:00;;;;;;;11.90;10.73;;;17.40;99.90;;;;;;4989655;28;20620;-87
2021/07/22 06:32:26;;;;;;;13.13;11.97;;;17.60;99.90;;;;;;4996776;28;20650;-89
2021/07/22 06:34:53;;;;;;;14.73;10.70;;;17.80;99.90;;;;;;4989206;28;20633;-87
2021/07/22 06:37:20;;;;;;;11.93;10.37;;;17.90;99.90;;;;;;4994858;28;20624;-87
2021/07/22 06:39:48;;;;;;;12.37;11.17;;;18.00;99.90;;;;;;4991974;28;20736;-90
2021/07/22 06:42:15;;;;;;;12.43;11.20;;;18.00;99.90;;;;;;4983344;28;20744;-89
2021/07/22 06:44:42;;;;;;;12.03;9.13;;;18.10;99.90;;;;;;4989196;28;20620;-89
2021/07/22 06:47:09;;;;;;;11.93;10.80;;;18.20;99.90;;;;;;4985235;28;21049;-90
2021/07/22 06:49:36;;;;;;;11.57;10.53;;;18.30;99.90;;;;;;4985712;28;20627;-89
2021/07/22 06:52:04;;;;;;;11.27;9.60;;;18.50;99.90;;;;;;4990461;28;21266;-88
2021/07/22 06:54:31;;;;;;;10.23;9.23;;;18.60;99.90;;;;;;4985508;28;20731;-89
2021/07/22 06:57:01;;;;;;;16.20;11.53;;;18.60;99.90;;;;;;4998112;28;20616;-89
2021/07/22 06:59:29;;;;;;;12.33;11.20;;;18.70;99.90;;;;;;4993560;28;20676;-91
2021/07/22 07:01:55;;;;;;;12.00;10.90;;;18.80;99.90;;;;;;4991789;28;20674;-89
2021/07/22 07:04:22;;;;;;;12.13;11.03;;;18.90;99.90;;;;;;4992443;28;20628;-91
2021/07/22 07:06:49;;;;;;;12.03;10.70;;;18.90;99.90;;;;;;4989593;28;20582;-89
2021/07/22 07:09:16;;;;;;;11.50;10.30;;;19.00;99.90;;;;;;4984111;28;20737;-90
2021/07/22 07:11:42;;;;;;;10.17;9.37;;;19.10;99.90;;;;;;4986719;28;20656;-91
2021/07/22 07:14:15;;;;;;;10.90;9.80;;;19.10;99.90;;;;;;4984662;28;20625;-90
2021/07/22 07:16:42;;;;;;;10.20;9.10;;;19.10;99.90;;;;;;4983375;28;20769;-89
2021/07/22 07:19:09;;;;;;;12.90;10.60;;;19.20;99.90;;;;;;4983613;28;20692;-89
2021/07/22 07:21:37;;;;;;;12.50;11.40;;;19.20;99.90;;;;;;4985696;28;20652;-89
2021/07/22 07:24:04;;;;;;;13.63;11.20;;;19.40;99.90;;;;;;4985769;28;20592;-90
2021/07/22 07:26:31;;;;;;;11.67;10.60;;;19.60;99.90;;;;;;4983511;28;20632;-92
2021/07/22 07:28:58;;;;;;;11.40;9.30;;;19.80;99.90;;;;;;4984418;28;20629;-90
2021/07/22 07:31:26;;;;;;;10.30;9.13;;;20.00;99.90;;;;;;4989012;28;20716;-91
2021/07/22 07:33:53;;;;;;;10.10;9.10;;;20.00;99.90;;;;;;4985373;28;21098;-90
2021/07/22 07:36:19;;;;;;;10.33;9.40;;;20.10;99.90;;;;;;4985172;28;20620;-90
2021/07/22 07:38:46;;;;;;;9.83;8.77;;;20.00;99.90;;;;;;4986143;28;20628;-89
2021/07/22 07:41:13;;;;;;;13.40;8.90;;;20.10;99.90;;;;;;4988561;28;21030;-89
2021/07/22 07:43:40;;;;;;;13.03;9.80;;;20.20;99.90;;;;;;4985614;28;21080;-92
2021/07/22 07:46:07;;;;;;;10.73;9.77;;;20.30;99.90;;;;;;4989212;28;21021;-90
2021/07/22 07:48:35;;;;;;;11.03;9.87;;;20.40;99.90;;;;;;4983957;28;20631;-90
2021/07/22 07:51:05;;;;;;;8.23;7.27;;;20.60;99.90;;;;;;4980510;28;20653;-89
2021/07/22 07:53:32;;;;;;;23.23;11.10;;;20.70;99.90;;;;;;4985319;28;21004;-90
2021/07/22 07:55:58;;;;;;;10.33;9.23;;;20.80;99.90;;;;;;4988478;28;20629;-89
2021/07/22 07:58:25;;;;;;;10.70;9.07;;;20.90;99.90;;;;;;4978995;28;20663;-91
2021/07/22 08:00:52;;;;;;;11.10;9.87;;;21.10;99.90;;;;;;4982461;28;20761;-91
2021/07/22 08:03:20;;;;;;;14.30;9.63;;;21.30;99.90;;;;;;4975775;28;20679;-91
2021/07/22 08:05:50;;;;;;;15.27;10.80;;;21.50;99.90;;;;;;4982301;28;20716;-91
2021/07/22 08:08:19;;;;;;;10.80;9.53;;;21.60;99.90;;;;;;4979957;28;20639;-91
2021/07/22 08:10:48;;;;;;;10.13;8.67;;;21.60;99.90;;;;;;4987090;28;20641;-92
2021/07/22 08:13:15;;;;;;;10.37;9.37;;;21.80;99.90;;;;;;4989388;28;20715;-89
2021/07/22 08:15:43;;;;;;;13.63;10.00;;;21.80;99.90;;;;;;4987503;28;21199;-91
2021/07/22 08:18:10;;;;;;;11.33;8.93;;;21.70;99.90;;;;;;4986649;28;20617;-92
2021/07/22 08:20:37;;;;;;;11.67;10.17;;;22.00;99.90;;;;;;4982762;28;20660;-92
2021/07/22 08:23:06;;;;;;;10.43;9.43;;;22.10;99.90;;;;;;4974736;28;20664;-90
2021/07/22 08:25:36;;;;;;;10.40;9.37;;;22.20;99.90;;;;;;4980589;28;20628;-90
2021/07/22 08:28:06;;;;;;;10.93;9.93;;;22.40;99.90;;;;;;4978665;28;20628;-90
2021/07/22 08:30:34;;;;;;;11.37;10.17;;;22.50;99.90;;;;;;4987950;28;20969;-92
2021/07/22 08:33:01;;;;;;;13.03;8.77;;;22.50;99.90;;;;;;4985564;28;20770;-90
2021/07/22 08:35:30;;;;;;;10.30;9.30;;;22.60;99.90;;;;;;4987408;28;20691;-89
2021/07/22 08:37:57;;;;;;;10.00;9.00;;;22.80;99.90;;;;;;4984633;28;20636;-91
2021/07/22 08:40:26;;;;;;;9.67;8.67;;;22.80;99.90;;;;;;4985598;28;20663;-91
2021/07/22 08:42:57;;;;;;;10.20;8.20;;;22.70;99.90;;;;;;4983896;28;20660;-92
2021/07/22 08:45:24;;;;;;;14.07;7.93;;;22.90;99.90;;;;;;4987207;28;20612;-90
2021/07/22 08:47:52;;;;;;;7.87;7.13;;;23.00;99.90;;;;;;4982669;28;20620;-91
2021/07/22 08:50:20;;;;;;;12.53;6.90;;;23.10;99.90;;;;;;4984998;28;20620;-91
2021/07/22 08:52:49;;;;;;;8.97;8.17;;;23.30;99.90;;;;;;4984662;28;20652;-92
2021/07/22 08:55:16;;;;;;;13.77;7.40;;;23.20;99.90;;;;;;4985617;28;20632;-91
2021/07/22 08:57:44;;;;;;;8.20;7.40;;;23.30;99.90;;;;;;4985596;28;20589;-91
2021/07/22 09:00:13;;;;;;;7.83;7.20;;;23.50;99.90;;;;;;4985552;28;20657;-91
2021/07/22 09:02:40;;;;;;;8.80;7.97;;;23.60;99.90;;;;;;4986508;28;20644;-92
2021/07/22 09:05:08;;;;;;;8.77;7.30;;;23.60;99.90;;;;;;4980314;28;20640;-92
2021/07/22 09:07:35;;;;;;;8.40;7.27;;;23.50;99.90;;;;;;4982006;28;20728;-91
2021/07/22 09:10:18;;;;;;;8.93;7.00;;;23.70;99.90;;;;;;4983110;28;20611;-91
2021/07/22 09:12:48;;;;;;;11.73;6.63;;;23.90;99.90;;;;;;4985986;28;20653;-91
2021/07/22 09:15:22;;;;;;;8.17;7.50;;;24.10;99.90;;;;;;4987199;28;20624;-92
2021/07/22 09:17:49;;;;;;;8.43;7.77;;;24.10;99.90;;;;;;4984706;28;20620;-91
2021/07/22 09:20:29;;;;;;;7.73;6.93;;;24.00;99.90;;;;;;4985239;28;20661;-92
2021/07/22 09:22:57;;;;;;;9.60;7.20;;;24.30;99.90;;;;;;4982810;28;20671;-91
2021/07/22 09:25:42;;;;;;;7.93;6.87;;;24.50;99.90;;;;;;4986683;28;20620;-92
2021/07/22 09:28:14;;;;;;;7.87;7.27;;;24.80;99.90;;;;;;4984399;28;20630;-91
2021/07/22 09:30:57;;;;;;;8.80;7.90;;;24.80;99.90;;;;;;4977097;28;20605;-92
2021/07/22 09:33:38;;;;;;;6.60;6.00;;;25.10;99.90;;;;;;4982648;28;20962;-92
2021/07/22 09:36:06;;;;;;;7.87;7.17;;;25.30;99.90;;;;;;4978149;28;20929;-92
2021/07/22 09:38:33;;;;;;;7.47;6.77;;;25.20;99.90;;;;;;4982205;28;20843;-91
2021/07/22 09:41:00;;;;;;;11.03;7.60;;;25.10;99.90;;;;;;4974843;28;20664;-92
2021/07/22 09:43:39;;;;;;;7.50;6.77;;;25.20;99.90;;;;;;4980918;28;21017;-93
2021/07/22 09:46:06;;;;;;;7.33;6.73;;;25.50;99.90;;;;;;4980460;28;21236;-93
2021/07/22 09:48:39;;;;;;;7.73;6.93;;;25.30;99.40;;;;;;4983997;28;20628;-92
2021/07/22 09:51:06;;;;;;;8.30;7.60;;;25.70;99.70;;;;;;4983191;28;21040;-92
2021/07/22 09:53:33;;;;;;;8.00;7.20;;;25.60;96.10;;;;;;4983191;28;21242;-93
2021/07/22 09:56:00;;;;;;;9.37;7.73;;;25.50;97.30;;;;;;4984768;28;20675;-93
2021/07/22 09:58:30;;;;;;;7.70;7.00;;;25.70;98.80;;;;;;4985491;28;20639;-92
2021/07/22 10:01:03;;;;;;;10.13;7.70;;;25.80;98.00;;;;;;4976948;28;20696;-92
2021/07/22 10:03:34;;;;;;;9.50;7.30;;;25.70;95.50;;;;;;4987127;28;20628;-92
2021/07/22 10:06:14;;;;;;;9.93;6.43;;;25.90;95.80;;;;;;4986132;28;21015;-92
2021/07/22 10:08:46;;;;;;;7.03;6.50;;;25.90;97.50;;;;;;4984348;28;20609;-92
2021/07/22 10:11:17;;;;;;;13.93;6.60;;;26.10;96.20;;;;;;4983346;28;20803;-92
2021/07/22 10:13:48;;;;;;;7.20;6.60;;;26.30;94.50;;;;;;4985368;28;20645;-92
2021/07/22 10:16:19;;;;;;;7.40;6.80;;;26.10;91.70;;;;;;4985802;28;20713;-92
2021/07/22 10:18:48;;;;;;;8.40;7.70;;;25.90;93.20;;;;;;4984586;28;20633;-92
2021/07/22 10:21:15;;;;;;;7.40;6.90;;;26.20;94.20;;;;;;4980069;28;21302;-92
2021/07/22 10:23:43;;;;;;;7.97;7.17;;;26.60;93.50;;;;;;4984414;28;20647;-93
2021/07/22 10:26:10;;;;;;;8.57;7.57;;;26.70;92.60;;;;;;4983548;28;20913;-92
2021/07/22 10:28:39;;;;;;;7.50;6.47;;;26.90;93.60;;;;;;4981194;28;20625;-92
2021/07/22 10:31:07;;;;;;;8.60;7.80;;;27.30;92.10;;;;;;4985090;28;21347;-92
2021/07/22 10:33:40;;;;;;;7.90;7.03;;;26.80;91.10;;;;;;4985199;28;20629;-92
2021/07/22 10:36:07;;;;;;;8.40;7.70;;;26.90;92.40;;;;;;4982488;28;20633;-93
2021/07/22 10:38:43;;;;;;;7.50;6.90;;;27.10;91.50;;;;;;4985848;28;20617;-92
2021/07/22 10:41:10;;;;;;;7.40;6.70;;;27.00;92.40;;;;;;4983963;28;20676;-92
2021/07/22 10:43:39;;;;;;;7.67;7.07;;;27.60;92.80;;;;;;4981467;28;20630;-92
2021/07/22 10:46:07;;;;;;;7.50;7.00;;;28.00;92.70;;;;;;4982568;28;20637;-93
2021/07/22 10:48:36;;;;;;;8.33;7.70;;;28.00;92.00;;;;;;4980628;28;20613;-92
2021/07/22 10:51:11;;;;;;;8.37;7.60;;;28.10;90.60;;;;;;4980504;28;21016;-92
2021/07/22 10:53:50;;;;;;;8.80;8.00;;;27.60;90.60;;;;;;4983809;28;20624;-92
2021/07/22 10:56:53;;;;;;;8.60;7.80;;;27.20;90.70;;;;;;4981885;28;21167;-94
2021/07/22 10:59:20;;;;;;;10.17;8.20;;;27.40;90.30;;;;;;4984610;28;20711;-92
2021/07/22 11:01:58;;;;;;;8.60;7.90;;;27.10;91.00;;;;;;4981477;28;20687;-93
2021/07/22 11:04:50;;;;;;;8.73;8.03;;;27.40;90.00;;;;;;4986935;28;20703;-94
2021/07/22 11:07:19;;;;;;;8.27;7.57;;;27.50;90.00;;;;;;4989338;28;20641;-93
2021/07/22 11:09:49;;;;;;;8.20;7.47;;;27.80;89.00;;;;;;4987658;28;20728;-93
2021/07/22 11:12:39;;;;;;;8.23;7.50;;;27.70;89.10;;;;;;4987849;28;20914;-92
2021/07/22 11:15:07;;;;;;;10.67;8.57;;;27.60;88.20;;;;;;4988833;28;20632;-93
2021/07/22 11:17:35;;;;;;;8.30;7.63;;;27.80;89.60;;;;;;4987678;28;20619;-93
2021/07/22 11:20:32;;;;;;;8.87;7.83;;;28.00;86.20;;;;;;4987667;28;20655;-92
2021/07/22 11:23:10;;;;;;;9.07;8.27;;;28.40;86.00;;;;;;4984540;28;20714;-93
2021/07/22 11:25:47;;;;;;;9.90;7.63;;;28.90;86.10;;;;;;4987940;28;20624;-93
2021/07/22 11:28:24;;;;;;;8.90;8.00;;;29.10;90.30;;;;;;4983983;28;20675;-93
2021/07/22 11:31:05;;;;;;;8.80;8.20;;;29.50;86.50;;;;;;4985380;28;20625;-93
2021/07/22 11:33:33;;;;;;;8.90;8.20;;;29.30;86.60;;;;;;4982033;28;20656;-92
2021/07/22 11:36:03;;;;;;;8.77;8.07;;;29.60;82.10;;;;;;4985045;28;20712;-92
2021/07/22 11:38:30;;;;;;;8.93;8.27;;;29.20;84.90;;;;;;4986010;28;20633;-92
2021/07/22 11:40:57;;;;;;;10.27;9.27;;;29.70;82.90;;;;;;4987494;28;20672;-92
2021/07/22 11:43:42;;;;;;;9.00;8.30;;;30.00;81.60;;;;;;4985530;28;20736;-93
2021/07/22 11:46:11;;;;;;;9.13;8.33;;;29.70;81.80;;;;;;4986573;28;20656;-92
2021/07/22 11:48:39;;;;;;;9.07;8.10;;;29.40;81.20;;;;;;4985887;28;20642;-92
2021/07/22 11:51:10;;;;;;;9.17;8.27;;;29.30;84.70;;;;;;4986726;28;20656;-92
2021/07/22 11:53:38;;;;;;;9.30;8.53;;;29.30;84.30;;;;;;4985902;28;20636;-92
2021/07/22 11:56:14;;;;;;;9.77;8.87;;;29.70;80.00;;;;;;4986513;28;20667;-93
2021/07/22 11:58:44;;;;;;;9.70;9.00;;;30.30;79.20;;;;;;4983842;28;20612;-92
2021/07/22 12:01:11;;;;;;;9.50;8.80;;;30.50;77.80;;;;;;4980442;28;21022;-93
2021/07/22 12:03:38;;;;;;;10.63;9.70;;;31.10;75.10;;;;;;4981560;28;20635;-92
2021/07/22 12:06:05;;;;;;;9.17;8.47;;;30.50;73.90;;;;;;4987343;28;20618;-92
2021/07/22 12:08:33;;;;;;;9.80;9.00;;;30.90;75.70;;;;;;4985594;28;20723;-92
2021/07/22 12:11:03;;;;;;;10.03;9.13;;;31.50;72.60;;;;;;4985326;28;21195;-92
2021/07/22 12:13:51;;;;;;;10.10;9.40;;;31.40;72.20;;;;;;4987715;28;20687;-92
2021/07/22 12:16:22;;;;;;;9.50;8.70;;;31.30;73.50;;;;;;4983168;28;20620;-92
2021/07/22 12:18:51;;;;;;;10.23;9.43;;;31.60;72.30;;;;;;4986819;28;20678;-92
2021/07/22 12:21:23;;;;;;;9.70;9.00;;;31.60;71.20;;;;;;4987416;28;20714;-92
2021/07/22 12:24:14;;;;;;;11.23;10.40;;;32.70;70.10;;;;;;4984959;28;20228;-92
2021/07/22 12:26:41;;;;;;;10.90;9.90;;;33.30;67.60;;;;;;4978974;28;20700;-92
2021/07/22 12:29:08;;;;;;;9.47;8.63;;;32.80;68.00;;;;;;4984945;28;20628;-92
2021/07/22 12:31:40;;;;;;;10.60;9.37;;;32.70;68.00;;;;;;4987783;28;20307;-92
2021/07/22 12:34:09;;;;;;;9.80;9.10;;;32.70;70.90;;;;;;4986600;28;20220;-91
2021/07/22 12:36:38;;;;;;;10.57;9.77;;;32.80;69.80;;;;;;4987183;28;20703;-91
2021/07/22 12:39:18;;;;;;;8.90;7.70;;;32.30;66.40;;;;;;4986885;28;20201;-91
2021/07/22 12:41:48;;;;;;;9.90;9.10;;;33.10;67.40;;;;;;4984291;28;20708;-92
2021/07/22 12:44:49;;;;;;;10.63;9.50;;;33.30;67.70;;;;;;4986442;28;20208;-91
2021/07/22 12:47:30;;;;;;;9.97;9.07;;;33.50;68.50;;;;;;4986607;28;20299;-91
2021/07/22 12:49:59;;;;;;;9.70;9.00;;;33.30;68.30;;;;;;4982058;28;21297;-91
2021/07/22 12:52:26;;;;;;;10.77;9.77;;;32.90;68.70;;;;;;4980893;28;20652;-91
2021/07/22 12:55:02;;;;;;;14.03;9.90;;;33.00;69.20;;;;;;4983214;28;20991;-91
2021/07/22 12:57:38;;;;;;;10.47;9.47;;;33.10;66.30;;;;;;4984727;28;20634;-92
2021/07/22 13:00:10;;;;;;;10.30;9.50;;;34.00;66.00;;;;;;4981049;28;20687;-91
2021/07/22 13:02:37;;;;;;;10.57;9.77;;;33.70;64.40;;;;;;4982789;28;20671;-91
2021/07/22 13:05:05;;;;;;;10.70;9.57;;;33.60;65.70;;;;;;4986770;28;20639;-92
2021/07/22 13:07:32;;;;;;;9.37;8.60;;;33.50;67.30;;;;;;4986671;28;20639;-91
2021/07/22 13:10:01;;;;;;;8.33;7.63;;;33.70;66.50;;;;;;4986513;28;20632;-91